createdAt,value
2023-05-19T00:00:21.419Z,12.02
2023-05-19T00:02:49.891Z,11.64
2023-05-19T00:05:18.940Z,11.89
2023-05-19T00:07:48.179Z,11.71
2023-05-19T00:10:19.370Z,11.83
2023-05-19T00:12:47.732Z,11.60
2023-05-19T00:15:16.566Z,11.55
2023-05-19T00:17:44.358Z,11.56
2023-05-19T00:20:13.412Z,11.55
2023-05-19T00:22:44.098Z,11.62
2023-05-19T00:25:11.920Z,11.63
2023-05-19T00:27:41.194Z,11.47
2023-05-19T00:30:10.389Z,11.52
2023-05-19T00:32:38.356Z,11.41
2023-05-19T00:35:06.909Z,11.47
2023-05-19T00:37:34.672Z,11.51
2023-05-19T00:40:02.453Z,11.37
2023-05-19T00:42:30.443Z,11.21
2023-05-19T00:44:59.573Z,11.35
2023-05-19T00:47:27.907Z,11.20
2023-05-19T00:49:55.656Z,11.20
2023-05-19T00:52:23.474Z,11.10
2023-05-19T00:54:52.687Z,11.13
2023-05-19T00:57:21.806Z,11.06
2023-05-19T00:59:49.781Z,10.91
2023-05-19T01:02:19.268Z,10.98
2023-05-19T01:04:47.339Z,10.97
2023-05-19T01:07:15.360Z,10.71
2023-05-19T01:09:43.607Z,10.86
2023-05-19T01:12:11.525Z,10.79
2023-05-19T01:14:39.449Z,10.99
2023-05-19T01:17:14.506Z,10.92
2023-05-19T01:19:56.317Z,10.95
2023-05-19T01:22:47.586Z,10.87
2023-05-19T01:25:43.488Z,10.70
2023-05-19T01:28:54.259Z,10.71
2023-05-19T01:31:25.562Z,11.00
2023-05-19T01:33:54.928Z,10.74
2023-05-19T01:36:24.296Z,10.69
2023-05-19T01:38:54.657Z,10.69
2023-05-19T01:41:23.522Z,10.72
2023-05-19T01:43:51.922Z,10.54
2023-05-19T01:46:20.291Z,10.47
2023-05-19T01:48:49.805Z,10.38
2023-05-19T01:51:17.681Z,10.59
2023-05-19T01:53:45.525Z,10.53
2023-05-19T01:56:22.644Z,10.57
2023-05-19T01:58:56.951Z,10.35
2023-05-19T02:01:35.161Z,10.42
2023-05-19T02:04:19.168Z,10.26
2023-05-19T02:06:54.896Z,9.99
2023-05-19T02:09:26.769Z,9.94
2023-05-19T02:11:57.985Z,9.91
2023-05-19T02:14:30.923Z,9.92
2023-05-19T02:16:59.340Z,9.89
2023-05-19T02:19:33.009Z,9.79
2023-05-19T02:22:00.790Z,9.72
2023-05-19T02:24:28.490Z,9.89
2023-05-19T02:26:56.255Z,9.88
2023-05-19T02:29:24.017Z,9.64
2023-05-19T02:31:51.795Z,9.70
2023-05-19T02:34:19.562Z,9.60
2023-05-19T02:36:49.763Z,9.54
2023-05-19T02:39:17.587Z,9.56
2023-05-19T02:41:45.339Z,9.50
2023-05-19T02:44:13.061Z,9.55
2023-05-19T02:46:41.089Z,9.44
2023-05-19T02:49:09.056Z,9.47
2023-05-19T02:51:36.820Z,9.32
2023-05-19T02:54:06.011Z,9.41
2023-05-19T02:56:33.779Z,9.13
2023-05-19T02:59:01.709Z,9.19
2023-05-19T03:01:29.672Z,9.31
2023-05-19T03:03:57.503Z,8.99
2023-05-19T03:06:25.392Z,9.20
2023-05-19T03:08:53.179Z,9.31
2023-05-19T03:11:23.299Z,9.16
2023-05-19T03:13:51.173Z,9.03
2023-05-19T03:16:19.120Z,8.91
2023-05-19T03:18:47.105Z,8.70
2023-05-19T03:21:15.155Z,8.72
2023-05-19T03:23:42.851Z,8.82
2023-05-19T03:26:10.801Z,8.60
2023-05-19T03:28:39.953Z,8.46
2023-05-19T03:31:07.655Z,8.45
2023-05-19T03:33:35.353Z,8.51
2023-05-19T03:36:04.000Z,8.48
2023-05-19T03:38:31.683Z,8.38
2023-05-19T03:40:59.371Z,8.49
2023-05-19T03:43:27.223Z,8.29
2023-05-19T03:45:56.390Z,8.34
2023-05-19T03:48:24.350Z,8.47
2023-05-19T03:50:52.189Z,8.69
2023-05-19T03:53:20.088Z,8.41
2023-05-19T03:55:48.580Z,8.47
2023-05-19T03:58:16.842Z,8.65
2023-05-19T04:00:44.717Z,8.61
2023-05-19T04:03:13.937Z,8.59
2023-05-19T04:05:41.983Z,8.54
2023-05-19T04:08:09.793Z,8.58
2023-05-19T04:10:37.495Z,8.64
2023-05-19T04:13:05.419Z,8.34
2023-05-19T04:15:34.070Z,8.24
2023-05-19T04:18:01.765Z,8.36
2023-05-19T04:20:31.016Z,8.68
2023-05-19T04:22:59.172Z,8.76
2023-05-19T04:25:28.251Z,9.01
2023-05-19T04:27:57.707Z,8.79
2023-05-19T04:30:26.005Z,8.87
2023-05-19T04:32:53.807Z,8.72
2023-05-19T04:35:22.529Z,8.76
2023-05-19T04:37:54.361Z,8.58
2023-05-19T04:40:23.729Z,8.71
2023-05-19T04:42:52.331Z,8.82
2023-05-19T04:45:20.227Z,8.96
2023-05-19T04:47:48.144Z,8.97
2023-05-19T04:50:16.836Z,8.73
2023-05-19T04:52:45.658Z,9.22
2023-05-19T04:55:15.284Z,9.53
2023-05-19T04:57:43.139Z,9.52
2023-05-19T05:00:13.918Z,9.74
2023-05-19T05:02:42.909Z,9.58
2023-05-19T05:05:11.167Z,9.86
2023-05-19T05:07:38.920Z,10.03
2023-05-19T05:10:08.285Z,10.20
2023-05-19T05:12:37.995Z,10.33
2023-05-19T05:15:07.925Z,10.36
2023-05-19T05:17:37.735Z,10.37
2023-05-19T05:20:06.968Z,10.26
2023-05-19T05:22:38.655Z,10.32
2023-05-19T05:25:07.777Z,10.49
2023-05-19T05:27:36.932Z,10.40
2023-05-19T05:30:05.384Z,10.44
2023-05-19T05:32:33.407Z,10.50
2023-05-19T05:35:01.371Z,10.54
2023-05-19T05:37:29.260Z,10.39
2023-05-19T05:39:56.966Z,10.68
2023-05-19T05:42:24.721Z,10.84
2023-05-19T05:44:53.980Z,11.14
2023-05-19T05:47:22.206Z,10.89
2023-05-19T05:49:52.083Z,11.29
2023-05-19T05:52:23.061Z,11.46
2023-05-19T05:54:51.348Z,11.75
2023-05-19T05:57:19.597Z,11.66
2023-05-19T05:59:47.712Z,11.77
2023-05-19T06:02:16.981Z,11.78
2023-05-19T06:04:45.113Z,11.83
2023-05-19T06:07:13.117Z,11.54
2023-05-19T06:09:41.553Z,11.97
2023-05-19T06:12:09.690Z,12.07
2023-05-19T06:14:37.398Z,12.07
2023-05-19T06:17:05.576Z,12.62
2023-05-19T06:19:34.784Z,12.40
2023-05-19T06:22:02.478Z,12.92
2023-05-19T06:24:30.492Z,12.98
2023-05-19T06:26:58.512Z,13.21
2023-05-19T06:29:26.197Z,13.35
2023-05-19T06:31:54.192Z,14.14
2023-05-19T06:34:21.920Z,14.25
2023-05-19T06:36:51.184Z,14.68
2023-05-19T06:39:19.041Z,14.40
2023-05-19T06:41:46.720Z,15.01
2023-05-19T06:44:14.404Z,15.51
2023-05-19T06:46:42.158Z,14.69
2023-05-19T06:49:09.862Z,14.67
2023-05-19T06:51:37.860Z,14.75
2023-05-19T06:54:07.017Z,15.21
2023-05-19T06:56:34.804Z,15.23
2023-05-19T06:59:02.556Z,15.49
2023-05-19T07:01:30.456Z,15.59
2023-05-19T07:03:58.202Z,16.14
2023-05-19T07:06:26.093Z,16.30
2023-05-19T07:08:53.863Z,16.18
2023-05-19T07:11:23.805Z,16.13
2023-05-19T07:13:51.581Z,16.03
2023-05-19T07:16:19.448Z,16.26
2023-05-19T07:18:47.283Z,15.87
2023-05-19T07:21:15.069Z,15.96
2023-05-19T07:23:42.764Z,16.62
2023-05-19T07:26:10.475Z,16.49
2023-05-19T07:28:41.473Z,17.17
2023-05-19T07:31:10.853Z,17.09
2023-05-19T07:33:38.624Z,16.97
2023-05-19T07:36:06.664Z,16.83
2023-05-19T07:38:34.795Z,16.36
2023-05-19T07:41:03.430Z,17.15
2023-05-19T07:43:31.547Z,17.51
2023-05-19T07:46:01.040Z,17.50
2023-05-19T07:48:29.867Z,17.50
2023-05-19T07:50:57.563Z,17.28
2023-05-19T07:53:25.965Z,17.86
2023-05-19T07:55:53.946Z,17.13
2023-05-19T07:58:24.717Z,17.79
2023-05-19T08:00:53.520Z,18.11
2023-05-19T08:03:23.580Z,18.03
2023-05-19T08:05:51.612Z,17.59
2023-05-19T08:08:19.591Z,18.47
2023-05-19T08:10:47.466Z,18.82
2023-05-19T08:13:15.290Z,16.97
2023-05-19T08:15:43.116Z,17.39
2023-05-19T08:18:10.911Z,17.53
2023-05-19T08:20:40.091Z,17.93
2023-05-19T08:23:07.839Z,17.42
2023-05-19T08:25:35.688Z,18.44
2023-05-19T08:28:03.506Z,18.49
2023-05-19T08:30:31.496Z,18.46
2023-05-19T08:32:59.788Z,18.61
2023-05-19T08:35:27.564Z,18.36
2023-05-19T08:37:56.725Z,18.51
2023-05-19T08:40:24.947Z,18.44
2023-05-19T08:42:52.803Z,18.34
2023-05-19T08:45:21.116Z,18.16
2023-05-19T08:47:50.358Z,18.38
2023-05-19T08:50:23.291Z,19.43
2023-05-19T08:52:54.184Z,19.26
2023-05-19T08:55:35.668Z,19.49
2023-05-19T08:58:05.727Z,19.52
2023-05-19T09:00:34.450Z,19.46
2023-05-19T09:03:17.457Z,19.15
2023-05-19T09:05:51.334Z,19.15
2023-05-19T09:08:19.448Z,19.16
2023-05-19T09:10:49.527Z,19.63
2023-05-19T09:13:18.448Z,19.22
2023-05-19T09:15:47.179Z,19.95
2023-05-19T09:18:15.509Z,20.41
2023-05-19T09:20:44.877Z,20.16
2023-05-19T09:23:16.831Z,19.54
2023-05-19T09:25:50.487Z,20.27
2023-05-19T09:28:25.108Z,19.01
2023-05-19T09:31:01.153Z,19.70
2023-05-19T09:33:29.496Z,20.25
2023-05-19T09:35:57.757Z,20.29
2023-05-19T09:38:26.391Z,19.73
2023-05-19T09:40:58.821Z,20.01
2023-05-19T09:43:29.698Z,20.22
2023-05-19T09:46:01.227Z,20.76
2023-05-19T09:48:29.187Z,20.36
2023-05-19T09:50:57.832Z,20.54
2023-05-19T09:53:26.552Z,20.55
2023-05-19T09:55:58.973Z,20.28
2023-05-19T09:58:27.954Z,20.45
2023-05-19T10:00:56.869Z,20.78
2023-05-19T10:03:25.032Z,20.88
2023-05-19T10:05:54.862Z,20.13
2023-05-19T10:08:26.696Z,21.04
2023-05-19T10:10:55.036Z,20.67
2023-05-19T10:13:25.272Z,20.99
2023-05-19T10:15:58.928Z,19.53
2023-05-19T10:18:29.484Z,20.46
2023-05-19T10:20:58.692Z,20.91
2023-05-19T10:23:27.102Z,21.02
2023-05-19T10:25:58.167Z,21.62
2023-05-19T10:28:36.139Z,20.73
2023-05-19T10:31:08.584Z,20.16
2023-05-19T10:33:48.474Z,20.49
2023-05-19T10:36:35.380Z,19.89
2023-05-19T10:39:07.405Z,20.59
2023-05-19T10:41:45.151Z,20.78
2023-05-19T10:44:29.310Z,21.39
2023-05-19T10:46:57.270Z,21.22
2023-05-19T10:49:25.517Z,21.34
2023-05-19T10:51:56.367Z,21.68
2023-05-19T10:54:43.723Z,21.44
2023-05-19T10:57:16.300Z,20.98
2023-05-19T10:59:45.879Z,22.02
2023-05-19T11:02:39.324Z,22.44
2023-05-19T11:05:11.029Z,21.03
2023-05-19T11:07:42.401Z,21.38
2023-05-19T11:10:11.016Z,21.50
2023-05-19T11:12:44.096Z,21.62
2023-05-19T11:15:15.379Z,20.70
2023-05-19T11:17:46.331Z,21.35
2023-05-19T11:20:23.551Z,21.83
2023-05-19T11:23:08.190Z,21.66
2023-05-19T11:25:46.828Z,21.79
2023-05-19T11:28:19.131Z,21.55
2023-05-19T11:30:51.760Z,21.39
2023-05-19T11:33:20.717Z,22.09
2023-05-19T11:35:49.892Z,21.72
2023-05-19T11:38:19.563Z,22.05
2023-05-19T11:40:48.823Z,21.32
2023-05-19T11:43:16.695Z,21.44
2023-05-19T11:45:44.927Z,20.83
2023-05-19T11:48:16.016Z,21.65
2023-05-19T11:50:45.051Z,22.26
2023-05-19T11:53:13.706Z,22.70
2023-05-19T11:55:44.539Z,22.64
2023-05-19T11:58:12.427Z,22.32
2023-05-19T12:00:41.564Z,21.34
2023-05-19T12:03:10.358Z,22.60
2023-05-19T12:05:43.677Z,22.48
2023-05-19T12:08:12.309Z,22.86
2023-05-19T12:10:41.019Z,22.06
2023-05-19T12:13:10.363Z,22.47
2023-05-19T12:15:39.500Z,22.41
2023-05-19T12:18:08.465Z,23.23
2023-05-19T12:20:37.144Z,21.49
2023-05-19T12:23:07.530Z,22.21
2023-05-19T12:25:35.642Z,22.59
2023-05-19T12:28:04.557Z,20.71
2023-05-19T12:30:34.304Z,21.27
2023-05-19T12:33:02.948Z,21.72
2023-05-19T12:35:33.051Z,21.80
2023-05-19T12:38:04.739Z,20.85
2023-05-19T12:40:35.549Z,21.94
2023-05-19T12:43:04.161Z,22.40
2023-05-19T12:45:35.670Z,23.07
2023-05-19T12:48:05.261Z,22.85
2023-05-19T12:50:34.815Z,22.22
2023-05-19T12:53:03.059Z,22.54
2023-05-19T12:55:31.401Z,22.92
2023-05-19T12:58:00.511Z,22.48
2023-05-19T13:00:31.024Z,22.37
2023-05-19T13:03:01.744Z,20.88
2023-05-19T13:05:31.677Z,21.78
2023-05-19T13:08:00.439Z,21.72
2023-05-19T13:10:28.950Z,21.99
2023-05-19T13:12:58.383Z,21.70
2023-05-19T13:15:29.508Z,21.57
2023-05-19T13:17:57.404Z,21.76
2023-05-19T13:20:27.598Z,20.99
2023-05-19T13:22:57.027Z,20.95
2023-05-19T13:25:24.845Z,21.61
2023-05-19T13:27:52.686Z,21.77
2023-05-19T13:30:21.000Z,21.39
2023-05-19T13:32:50.694Z,21.65
2023-05-19T13:35:18.666Z,21.23
2023-05-19T13:37:46.422Z,20.71
2023-05-19T13:40:15.708Z,20.33
2023-05-19T13:42:43.533Z,20.77
2023-05-19T13:45:12.179Z,21.11
2023-05-19T13:47:39.957Z,20.88
2023-05-19T13:50:09.673Z,20.53
2023-05-19T13:52:37.629Z,20.34
2023-05-19T13:55:07.162Z,20.28
2023-05-19T13:57:35.317Z,19.86
2023-05-19T14:00:04.585Z,19.79
2023-05-19T14:02:33.036Z,20.19
2023-05-19T14:05:01.014Z,20.13
2023-05-19T14:07:30.466Z,19.63
2023-05-19T14:09:58.302Z,19.59
2023-05-19T14:12:35.376Z,20.18
2023-05-19T14:15:09.225Z,19.97
2023-05-19T14:17:38.312Z,19.40
2023-05-19T14:20:07.393Z,18.97
2023-05-19T14:22:36.695Z,19.18
2023-05-19T14:25:04.758Z,19.17
2023-05-19T14:27:32.524Z,19.12
2023-05-19T14:30:00.458Z,19.36
2023-05-19T14:32:30.462Z,19.05
2023-05-19T14:34:58.502Z,19.02
2023-05-19T14:37:28.880Z,19.20
2023-05-19T14:39:58.721Z,18.61
2023-05-19T14:42:26.584Z,19.13
2023-05-19T14:44:54.338Z,19.38
2023-05-19T14:47:22.545Z,19.26
2023-05-19T14:49:50.488Z,19.10
2023-05-19T14:52:18.609Z,19.27
2023-05-19T14:54:46.454Z,19.48
2023-05-19T14:57:15.705Z,19.57
2023-05-19T14:59:43.461Z,19.38
2023-05-19T15:02:12.009Z,19.11
2023-05-19T15:04:39.846Z,19.23
2023-05-19T15:07:10.359Z,19.43
2023-05-19T15:09:38.884Z,19.54
2023-05-19T15:12:07.078Z,19.60
2023-05-19T15:14:36.198Z,20.08
2023-05-19T15:17:04.031Z,19.94
2023-05-19T15:19:31.865Z,19.93
2023-05-19T15:21:59.659Z,19.81
2023-05-19T15:24:27.964Z,19.91
2023-05-19T15:26:56.405Z,19.94
2023-05-19T15:29:24.317Z,19.97
2023-05-19T15:31:53.782Z,19.88
2023-05-19T15:34:22.124Z,19.77
2023-05-19T15:36:50.012Z,20.08
2023-05-19T15:39:17.987Z,19.97
2023-05-19T15:41:45.836Z,20.27
2023-05-19T15:44:13.651Z,20.42
2023-05-19T15:46:41.637Z,20.53
2023-05-19T15:49:12.845Z,20.49
2023-05-19T15:51:41.030Z,20.24
2023-05-19T15:54:08.912Z,20.10
2023-05-19T15:56:36.811Z,20.12
2023-05-19T15:59:04.531Z,20.03
2023-05-19T16:01:32.434Z,20.18
2023-05-19T16:04:02.336Z,20.33
2023-05-19T16:06:31.743Z,20.10
2023-05-19T16:08:59.940Z,20.30
2023-05-19T16:11:27.879Z,20.12
2023-05-19T16:13:57.592Z,20.23
2023-05-19T16:16:25.539Z,19.87
2023-05-19T16:18:53.393Z,19.60
2023-05-19T16:21:21.783Z,19.94
2023-05-19T16:23:50.855Z,19.99
2023-05-19T16:26:18.696Z,19.81
2023-05-19T16:28:46.458Z,20.00
2023-05-19T16:31:14.468Z,19.86
2023-05-19T16:33:42.409Z,19.81
2023-05-19T16:36:10.134Z,19.94
2023-05-19T16:38:38.248Z,19.95
2023-05-19T16:41:12.621Z,19.78
2023-05-19T16:43:40.688Z,19.47
2023-05-19T16:46:09.888Z,19.26
2023-05-19T16:48:37.742Z,19.51
2023-05-19T16:51:05.600Z,19.74
2023-05-19T16:53:33.517Z,19.83
2023-05-19T16:56:01.408Z,19.37
2023-05-19T16:58:31.102Z,19.45
2023-05-19T17:00:58.982Z,19.72
2023-05-19T17:03:27.013Z,19.38
2023-05-19T17:05:55.400Z,19.55
2023-05-19T17:08:23.281Z,19.41
2023-05-19T17:10:51.138Z,19.63
2023-05-19T17:13:18.997Z,19.01
2023-05-19T17:15:52.418Z,19.46
2023-05-19T17:18:20.269Z,19.40
2023-05-19T17:20:48.135Z,19.22
2023-05-19T17:23:16.014Z,19.35
2023-05-19T17:25:43.811Z,19.08
2023-05-19T17:28:11.650Z,19.37
2023-05-19T17:30:40.649Z,18.92
2023-05-19T17:33:09.786Z,19.07
2023-05-19T17:35:37.738Z,19.22
2023-05-19T17:38:05.592Z,19.39
2023-05-19T17:40:34.260Z,19.12
2023-05-19T17:43:02.396Z,19.34
2023-05-19T17:45:31.168Z,19.27
2023-05-19T17:47:58.988Z,19.39
2023-05-19T17:50:28.605Z,18.76
2023-05-19T17:52:56.956Z,18.83
2023-05-19T17:55:29.985Z,18.82
2023-05-19T17:57:59.027Z,19.01
2023-05-19T18:00:27.623Z,18.86
2023-05-19T18:02:56.930Z,18.98
2023-05-19T18:05:26.754Z,18.84
2023-05-19T18:07:59.265Z,19.20
2023-05-19T18:10:28.673Z,19.14
2023-05-19T18:12:56.714Z,18.90
2023-05-19T18:15:25.879Z,18.66
2023-05-19T18:17:53.786Z,18.41
2023-05-19T18:20:21.940Z,18.48
2023-05-19T18:22:50.421Z,18.30
2023-05-19T18:25:20.939Z,18.55
2023-05-19T18:27:49.047Z,18.54
2023-05-19T18:30:17.111Z,18.48
2023-05-19T18:32:45.043Z,18.57
2023-05-19T18:35:12.953Z,18.87
2023-05-19T18:37:40.930Z,18.91
2023-05-19T18:40:09.747Z,18.63
2023-05-19T18:42:39.028Z,18.58
2023-05-19T18:45:07.928Z,18.55
2023-05-19T18:47:35.970Z,18.48
2023-05-19T18:50:04.500Z,18.24
2023-05-19T18:52:32.481Z,18.33
2023-05-19T18:55:01.173Z,18.50
2023-05-19T18:57:29.046Z,18.33
2023-05-19T18:59:58.217Z,18.40
2023-05-19T19:02:26.140Z,18.44
2023-05-19T19:04:54.512Z,18.55
2023-05-19T19:07:22.264Z,18.48
2023-05-19T19:09:50.459Z,18.24
2023-05-19T19:12:19.617Z,18.70
2023-05-19T19:14:48.222Z,18.13
2023-05-19T19:17:18.019Z,18.61
2023-05-19T19:19:46.371Z,18.55
2023-05-19T19:22:14.289Z,18.15
2023-05-19T19:24:43.093Z,18.13
2023-05-19T19:27:11.128Z,18.33
2023-05-19T19:29:39.194Z,18.31
2023-05-19T19:32:08.817Z,17.96
2023-05-19T19:34:38.558Z,17.96
2023-05-19T19:37:06.361Z,17.79
2023-05-19T19:39:34.406Z,17.60
2023-05-19T19:42:02.484Z,17.72
2023-05-19T19:44:30.454Z,17.64
2023-05-19T19:46:58.191Z,17.61
2023-05-19T19:49:26.099Z,17.25
2023-05-19T19:51:55.612Z,17.68
2023-05-19T19:54:23.396Z,17.67
2023-05-19T19:56:51.451Z,17.56
2023-05-19T19:59:19.333Z,17.28
2023-05-19T20:01:47.180Z,17.25
2023-05-19T20:04:15.768Z,17.38
2023-05-19T20:06:43.798Z,17.18
2023-05-19T20:09:13.101Z,17.24
2023-05-19T20:11:40.951Z,17.27
2023-05-19T20:14:08.959Z,17.15
2023-05-19T20:16:37.484Z,17.26
2023-05-19T20:19:06.772Z,16.93
2023-05-19T20:21:36.367Z,16.75
2023-05-19T20:24:04.544Z,16.95
2023-05-19T20:26:33.813Z,17.08
2023-05-19T20:29:01.593Z,16.78
2023-05-19T20:31:29.447Z,16.98
2023-05-19T20:33:58.158Z,16.95
2023-05-19T20:36:27.460Z,16.97
2023-05-19T20:38:55.310Z,16.84
2023-05-19T20:41:23.714Z,16.74
2023-05-19T20:43:54.954Z,16.94
2023-05-19T20:46:22.971Z,16.90
2023-05-19T20:48:50.853Z,16.81
2023-05-19T20:51:18.668Z,16.84
2023-05-19T20:53:46.667Z,16.69
2023-05-19T20:56:14.737Z,16.54
2023-05-19T20:58:42.500Z,16.74
2023-05-19T21:01:11.836Z,16.65
2023-05-19T21:03:39.758Z,16.59
2023-05-19T21:06:07.614Z,16.47
2023-05-19T21:08:35.517Z,16.23
2023-05-19T21:11:03.561Z,16.53
2023-05-19T21:13:31.462Z,16.38
2023-05-19T21:15:59.571Z,16.42
2023-05-19T21:18:28.852Z,16.42
2023-05-19T21:20:56.737Z,16.61
2023-05-19T21:23:24.530Z,16.48
2023-05-19T21:25:52.710Z,16.53
2023-05-19T21:28:20.610Z,16.39
2023-05-19T21:30:49.227Z,16.29
2023-05-19T21:33:17.283Z,16.28
2023-05-19T21:35:47.456Z,16.49
2023-05-19T21:38:23.476Z,16.01
2023-05-19T21:40:53.296Z,16.17
2023-05-19T21:43:22.045Z,16.17
2023-05-19T21:45:49.943Z,16.22
2023-05-19T21:48:18.084Z,16.26
2023-05-19T21:50:47.358Z,16.38
2023-05-19T21:53:15.230Z,16.31
2023-05-19T21:55:43.086Z,16.16
2023-05-19T21:58:11.126Z,16.35
2023-05-19T22:00:38.940Z,15.97
2023-05-19T22:03:06.842Z,16.08
2023-05-19T22:05:35.331Z,16.28
2023-05-19T22:08:04.755Z,15.96
2023-05-19T22:10:33.099Z,16.04
2023-05-19T22:13:01.286Z,16.14
2023-05-19T22:15:29.140Z,16.12
2023-05-19T22:17:57.172Z,16.10
2023-05-19T22:20:25.271Z,15.93
2023-05-19T22:22:53.495Z,16.12
2023-05-19T22:25:22.643Z,15.81
2023-05-19T22:27:50.486Z,15.87
2023-05-19T22:30:18.309Z,15.71
2023-05-19T22:32:46.327Z,15.67
2023-05-19T22:35:14.083Z,15.95
2023-05-19T22:37:41.902Z,15.96
2023-05-19T22:40:10.225Z,15.68
2023-05-19T22:42:39.615Z,15.68
2023-05-19T22:45:08.318Z,15.54
2023-05-19T22:47:36.449Z,15.74
2023-05-19T22:50:04.576Z,15.73
2023-05-19T22:52:32.302Z,15.76
2023-05-19T22:55:00.173Z,15.66
2023-05-19T22:57:27.995Z,15.66
2023-05-19T22:59:57.073Z,15.59
2023-05-19T23:02:24.873Z,15.75
2023-05-19T23:04:52.887Z,15.63
2023-05-19T23:07:20.699Z,15.48
2023-05-19T23:09:48.500Z,15.45
2023-05-19T23:12:17.251Z,15.57
2023-05-19T23:14:45.043Z,15.58
2023-05-19T23:17:14.454Z,15.35
2023-05-19T23:19:42.308Z,15.55
2023-05-19T23:22:11.167Z,15.39
2023-05-19T23:24:39.478Z,15.50
2023-05-19T23:27:07.927Z,15.49
2023-05-19T23:29:35.831Z,15.37
2023-05-19T23:32:03.613Z,15.32
2023-05-19T23:34:33.082Z,15.46
2023-05-19T23:37:00.881Z,15.34
2023-05-19T23:39:28.568Z,15.20
2023-05-19T23:41:56.349Z,15.21
2023-05-19T23:44:24.139Z,15.29
2023-05-19T23:46:52.030Z,15.34
2023-05-19T23:49:20.457Z,15.25
2023-05-19T23:51:49.583Z,15.28
2023-05-19T23:54:17.399Z,15.16
2023-05-19T23:56:45.225Z,15.22
2023-05-19T23:59:13.054Z,15.04
